Ravenglass, United Kingdom
Current Conditions -  °F | °C
As of 2:20 PM on Friday 24 Oct 2014 (Local Time) from EGNC Reporting Station
Rain Showers Rain Showers  
Wind Chill: 11°   Ceiling: 3800
Heat Index: 11°   Visibility: 6mi
Dew Point:   Wind: 15mph
Humidity: 82%   Direction: 240°WSW
Pressure: 29.8"   Gusts: NA
Location:  54.36°N, 3.39°W
Report Text: EGNC 241320Z 24013KT 9999 VCSH FEW018 SCT032 BKN038 11/08 Q1009
Loading
Personal Weather Stations






























Interactive Weather Map
Tropical Storm Tracking
New forecast layout! Learn more

10-Day Weather Forecast

Advertisements
Track Severe Weather on mobile